sensor_id;sensor_type;location;lat;lon;timestamp;P1;durP1;ratioP1;P2;durP2;ratioP2
30635;SDS011;17400;52.392;9.750;2023-11-19T00:00:14;3.20;;;1.85;;
30635;SDS011;17400;52.392;9.750;2023-11-19T00:02:43;0.80;;;0.77;;
30635;SDS011;17400;52.392;9.750;2023-11-19T00:05:12;1.20;;;0.77;;
30635;SDS011;17400;52.392;9.750;2023-11-19T00:07:40;1.40;;;0.73;;
30635;SDS011;17400;52.392;9.750;2023-11-19T00:10:09;1.70;;;0.90;;
30635;SDS011;17400;52.392;9.750;2023-11-19T00:12:38;1.27;;;0.88;;
30635;SDS011;17400;52.392;9.750;2023-11-19T00:15:06;0.82;;;0.68;;
30635;SDS011;17400;52.392;9.750;2023-11-19T00:17:38;1.50;;;0.60;;
30635;SDS011;17400;52.392;9.750;2023-11-19T00:20:07;1.05;;;0.80;;
30635;SDS011;17400;52.392;9.750;2023-11-19T00:22:37;1.25;;;0.82;;
30635;SDS011;17400;52.392;9.750;2023-11-19T00:25:15;0.95;;;0.63;;
30635;SDS011;17400;52.392;9.750;2023-11-19T00:27:43;1.60;;;1.08;;
30635;SDS011;17400;52.392;9.750;2023-11-19T00:30:12;4.00;;;1.57;;
30635;SDS011;17400;52.392;9.750;2023-11-19T00:32:41;0.88;;;0.70;;
30635;SDS011;17400;52.392;9.750;2023-11-19T00:35:09;0.93;;;0.70;;
30635;SDS011;17400;52.392;9.750;2023-11-19T00:37:38;1.83;;;0.82;;
30635;SDS011;17400;52.392;9.750;2023-11-19T00:40:07;1.48;;;0.95;;
30635;SDS011;17400;52.392;9.750;2023-11-19T00:42:37;0.85;;;0.85;;
30635;SDS011;17400;52.392;9.750;2023-11-19T00:45:05;1.27;;;0.65;;
30635;SDS011;17400;52.392;9.750;2023-11-19T00:47:37;1.30;;;0.70;;
30635;SDS011;17400;52.392;9.750;2023-11-19T00:50:05;1.10;;;0.60;;
30635;SDS011;17400;52.392;9.750;2023-11-19T00:52:35;2.73;;;0.97;;
30635;SDS011;17400;52.392;9.750;2023-11-19T00:55:05;0.82;;;0.60;;
30635;SDS011;17400;52.392;9.750;2023-11-19T00:57:34;1.30;;;0.70;;
30635;SDS011;17400;52.392;9.750;2023-11-19T01:00:03;0.90;;;0.77;;
30635;SDS011;17400;52.392;9.750;2023-11-19T01:02:36;1.30;;;0.90;;
30635;SDS011;17400;52.392;9.750;2023-11-19T01:05:04;1.45;;;0.70;;
30635;SDS011;17400;52.392;9.750;2023-11-19T01:07:32;1.77;;;1.05;;
30635;SDS011;17400;52.392;9.750;2023-11-19T01:10:01;0.68;;;0.57;;
30635;SDS011;17400;52.392;9.750;2023-11-19T01:12:31;1.40;;;0.57;;
30635;SDS011;17400;52.392;9.750;2023-11-19T01:14:59;1.20;;;0.70;;
30635;SDS011;17400;52.392;9.750;2023-11-19T01:17:27;1.02;;;0.70;;
30635;SDS011;17400;52.392;9.750;2023-11-19T01:19:58;1.30;;;0.80;;
30635;SDS011;17400;52.392;9.750;2023-11-19T01:22:25;0.65;;;0.60;;
30635;SDS011;17400;52.392;9.750;2023-11-19T01:24:53;0.93;;;0.85;;
30635;SDS011;17400;52.392;9.750;2023-11-19T01:27:21;1.02;;;0.93;;
30635;SDS011;17400;52.392;9.750;2023-11-19T01:29:50;1.02;;;0.63;;
30635;SDS011;17400;52.392;9.750;2023-11-19T01:32:18;0.57;;;0.50;;
30635;SDS011;17400;52.392;9.750;2023-11-19T01:34:46;1.15;;;0.60;;
30635;SDS011;17400;52.392;9.750;2023-11-19T01:37:14;1.38;;;0.50;;
30635;SDS011;17400;52.392;9.750;2023-11-19T01:39:43;0.65;;;0.60;;
30635;SDS011;17400;52.392;9.750;2023-11-19T01:42:11;1.88;;;1.13;;
30635;SDS011;17400;52.392;9.750;2023-11-19T01:44:39;0.50;;;0.50;;
30635;SDS011;17400;52.392;9.750;2023-11-19T01:47:08;0.70;;;0.50;;
30635;SDS011;17400;52.392;9.750;2023-11-19T01:49:36;1.05;;;0.77;;
30635;SDS011;17400;52.392;9.750;2023-11-19T01:52:04;0.40;;;0.30;;
30635;SDS011;17400;52.392;9.750;2023-11-19T01:54:33;0.73;;;0.55;;
30635;SDS011;17400;52.392;9.750;2023-11-19T01:57:01;0.50;;;0.50;;
30635;SDS011;17400;52.392;9.750;2023-11-19T01:59:29;0.52;;;0.32;;
30635;SDS011;17400;52.392;9.750;2023-11-19T02:01:57;1.08;;;0.73;;
30635;SDS011;17400;52.392;9.750;2023-11-19T02:04:28;4.80;;;2.40;;
30635;SDS011;17400;52.392;9.750;2023-11-19T02:06:57;1.63;;;1.10;;
30635;SDS011;17400;52.392;9.750;2023-11-19T02:09:26;1.98;;;0.73;;
30635;SDS011;17400;52.392;9.750;2023-11-19T02:11:54;1.13;;;0.63;;
30635;SDS011;17400;52.392;9.750;2023-11-19T02:14:22;1.70;;;0.60;;
30635;SDS011;17400;52.392;9.750;2023-11-19T02:16:53;0.68;;;0.50;;
30635;SDS011;17400;52.392;9.750;2023-11-19T02:19:21;1.02;;;0.60;;
30635;SDS011;17400;52.392;9.750;2023-11-19T02:21:50;0.25;;;0.25;;
30635;SDS011;17400;52.392;9.750;2023-11-19T02:24:18;0.22;;;0.22;;
30635;SDS011;17400;52.392;9.750;2023-11-19T02:26:51;0.50;;;0.40;;
30635;SDS011;17400;52.392;9.750;2023-11-19T02:29:26;2.90;;;0.40;;
30635;SDS011;17400;52.392;9.750;2023-11-19T02:31:54;0.40;;;0.40;;
30635;SDS011;17400;52.392;9.750;2023-11-19T02:34:23;0.30;;;0.30;;
30635;SDS011;17400;52.392;9.750;2023-11-19T02:36:50;1.85;;;0.40;;
30635;SDS011;17400;52.392;9.750;2023-11-19T02:39:19;0.63;;;0.63;;
30635;SDS011;17400;52.392;9.750;2023-11-19T02:41:48;0.20;;;0.20;;
30635;SDS011;17400;52.392;9.750;2023-11-19T02:44:17;0.22;;;0.22;;
30635;SDS011;17400;52.392;9.750;2023-11-19T02:46:46;0.30;;;0.28;;
30635;SDS011;17400;52.392;9.750;2023-11-19T02:49:14;0.60;;;0.40;;
30635;SDS011;17400;52.392;9.750;2023-11-19T02:51:42;1.48;;;0.43;;
30635;SDS011;17400;52.392;9.750;2023-11-19T02:54:10;0.57;;;0.35;;
30635;SDS011;17400;52.392;9.750;2023-11-19T02:56:40;0.65;;;0.40;;
30635;SDS011;17400;52.392;9.750;2023-11-19T02:59:09;1.02;;;0.40;;
30635;SDS011;17400;52.392;9.750;2023-11-19T03:01:54;1.27;;;0.40;;
30635;SDS011;17400;52.392;9.750;2023-11-19T03:04:22;1.40;;;0.47;;
30635;SDS011;17400;52.392;9.750;2023-11-19T03:06:50;0.30;;;0.20;;
30635;SDS011;17400;52.392;9.750;2023-11-19T03:09:19;0.40;;;0.40;;
30635;SDS011;17400;52.392;9.750;2023-11-19T03:11:47;1.08;;;0.50;;
30635;SDS011;17400;52.392;9.750;2023-11-19T03:14:16;0.22;;;0.20;;
30635;SDS011;17400;52.392;9.750;2023-11-19T03:16:44;0.88;;;0.40;;
30635;SDS011;17400;52.392;9.750;2023-11-19T03:19:14;0.43;;;0.40;;
30635;SDS011;17400;52.392;9.750;2023-11-19T03:21:51;0.45;;;0.28;;
30635;SDS011;17400;52.392;9.750;2023-11-19T03:24:19;0.60;;;0.38;;
30635;SDS011;17400;52.392;9.750;2023-11-19T03:26:47;0.20;;;0.20;;
30635;SDS011;17400;52.392;9.750;2023-11-19T03:29:16;0.40;;;0.30;;
30635;SDS011;17400;52.392;9.750;2023-11-19T03:31:44;0.30;;;0.30;;
30635;SDS011;17400;52.392;9.750;2023-11-19T03:34:14;0.22;;;0.22;;
30635;SDS011;17400;52.392;9.750;2023-11-19T03:36:42;0.70;;;0.50;;
30635;SDS011;17400;52.392;9.750;2023-11-19T03:39:09;0.60;;;0.50;;
30635;SDS011;17400;52.392;9.750;2023-11-19T03:41:37;0.30;;;0.20;;
30635;SDS011;17400;52.392;9.750;2023-11-19T03:44:07;1.15;;;0.50;;
30635;SDS011;17400;52.392;9.750;2023-11-19T03:46:36;0.20;;;0.20;;
30635;SDS011;17400;52.392;9.750;2023-11-19T03:49:04;1.05;;;0.40;;
30635;SDS011;17400;52.392;9.750;2023-11-19T03:51:35;0.82;;;0.52;;
30635;SDS011;17400;52.392;9.750;2023-11-19T03:54:03;0.40;;;0.40;;
30635;SDS011;17400;52.392;9.750;2023-11-19T03:56:32;0.70;;;0.50;;
30635;SDS011;17400;52.392;9.750;2023-11-19T03:59:00;0.50;;;0.50;;
30635;SDS011;17400;52.392;9.750;2023-11-19T04:01:28;0.65;;;0.50;;
30635;SDS011;17400;52.392;9.750;2023-11-19T04:03:57;1.42;;;0.70;;
30635;SDS011;17400;52.392;9.750;2023-11-19T04:06:25;0.43;;;0.40;;
30635;SDS011;17400;52.392;9.750;2023-11-19T04:08:55;1.02;;;0.45;;
30635;SDS011;17400;52.392;9.750;2023-11-19T04:11:22;0.65;;;0.60;;
30635;SDS011;17400;52.392;9.750;2023-11-19T04:13:50;0.90;;;0.70;;
30635;SDS011;17400;52.392;9.750;2023-11-19T04:16:18;0.85;;;0.55;;
30635;SDS011;17400;52.392;9.750;2023-11-19T04:18:46;0.50;;;0.50;;
30635;SDS011;17400;52.392;9.750;2023-11-19T04:21:15;1.20;;;0.70;;
30635;SDS011;17400;52.392;9.750;2023-11-19T04:23:43;1.02;;;0.70;;
30635;SDS011;17400;52.392;9.750;2023-11-19T04:26:12;1.20;;;0.82;;
30635;SDS011;17400;52.392;9.750;2023-11-19T04:28:40;1.30;;;0.77;;
30635;SDS011;17400;52.392;9.750;2023-11-19T04:31:08;1.90;;;1.10;;
30635;SDS011;17400;52.392;9.750;2023-11-19T04:33:36;0.63;;;0.45;;
30635;SDS011;17400;52.392;9.750;2023-11-19T04:36:04;2.30;;;0.68;;
30635;SDS011;17400;52.392;9.750;2023-11-19T04:38:32;1.60;;;0.70;;
30635;SDS011;17400;52.392;9.750;2023-11-19T04:41:01;1.42;;;0.80;;
30635;SDS011;17400;52.392;9.750;2023-11-19T04:43:30;2.15;;;1.48;;
30635;SDS011;17400;52.392;9.750;2023-11-19T04:45:59;2.33;;;1.42;;
30635;SDS011;17400;52.392;9.750;2023-11-19T04:48:27;2.15;;;1.17;;
30635;SDS011;17400;52.392;9.750;2023-11-19T04:51:07;1.63;;;0.93;;
30635;SDS011;17400;52.392;9.750;2023-11-19T04:53:35;1.63;;;1.00;;
30635;SDS011;17400;52.392;9.750;2023-11-19T04:56:07;1.70;;;1.13;;
30635;SDS011;17400;52.392;9.750;2023-11-19T04:58:36;2.63;;;1.48;;
30635;SDS011;17400;52.392;9.750;2023-11-19T05:01:04;2.38;;;1.30;;
30635;SDS011;17400;52.392;9.750;2023-11-19T05:03:32;2.47;;;1.42;;
30635;SDS011;17400;52.392;9.750;2023-11-19T05:06:03;2.58;;;1.77;;
30635;SDS011;17400;52.392;9.750;2023-11-19T05:08:31;2.38;;;1.25;;
30635;SDS011;17400;52.392;9.750;2023-11-19T05:10:59;1.85;;;1.13;;
30635;SDS011;17400;52.392;9.750;2023-11-19T05:13:27;3.60;;;1.80;;
30635;SDS011;17400;52.392;9.750;2023-11-19T05:15:57;3.00;;;1.52;;
30635;SDS011;17400;52.392;9.750;2023-11-19T05:18:24;2.95;;;1.88;;
30635;SDS011;17400;52.392;9.750;2023-11-19T05:20:52;2.40;;;1.38;;
30635;SDS011;17400;52.392;9.750;2023-11-19T05:23:20;3.25;;;1.67;;
30635;SDS011;17400;52.392;9.750;2023-11-19T05:25:48;4.05;;;2.08;;
30635;SDS011;17400;52.392;9.750;2023-11-19T05:28:16;3.78;;;2.35;;
30635;SDS011;17400;52.392;9.750;2023-11-19T05:30:44;4.30;;;2.28;;
30635;SDS011;17400;52.392;9.750;2023-11-19T05:33:13;4.30;;;2.45;;
30635;SDS011;17400;52.392;9.750;2023-11-19T05:35:41;4.18;;;2.13;;
30635;SDS011;17400;52.392;9.750;2023-11-19T05:38:09;4.05;;;2.63;;
30635;SDS011;17400;52.392;9.750;2023-11-19T05:40:37;3.30;;;2.17;;
30635;SDS011;17400;52.392;9.750;2023-11-19T05:43:06;4.03;;;2.17;;
30635;SDS011;17400;52.392;9.750;2023-11-19T05:45:34;3.70;;;2.67;;
30635;SDS011;17400;52.392;9.750;2023-11-19T05:48:02;5.97;;;3.10;;
30635;SDS011;17400;52.392;9.750;2023-11-19T05:50:32;4.85;;;2.90;;
30635;SDS011;17400;52.392;9.750;2023-11-19T05:53:00;3.92;;;2.45;;
30635;SDS011;17400;52.392;9.750;2023-11-19T05:55:28;6.88;;;4.03;;
30635;SDS011;17400;52.392;9.750;2023-11-19T05:57:57;4.40;;;2.78;;
30635;SDS011;17400;52.392;9.750;2023-11-19T06:00:26;5.80;;;3.20;;
30635;SDS011;17400;52.392;9.750;2023-11-19T06:02:54;6.35;;;4.03;;
30635;SDS011;17400;52.392;9.750;2023-11-19T06:05:22;5.22;;;3.45;;
30635;SDS011;17400;52.392;9.750;2023-11-19T06:07:51;5.28;;;3.58;;
30635;SDS011;17400;52.392;9.750;2023-11-19T06:10:19;6.70;;;3.10;;
30635;SDS011;17400;52.392;9.750;2023-11-19T06:12:47;7.43;;;3.38;;
30635;SDS011;17400;52.392;9.750;2023-11-19T06:15:22;7.93;;;3.83;;
30635;SDS011;17400;52.392;9.750;2023-11-19T06:17:50;5.63;;;3.40;;
30635;SDS011;17400;52.392;9.750;2023-11-19T06:20:18;6.70;;;3.20;;
30635;SDS011;17400;52.392;9.750;2023-11-19T06:22:47;4.38;;;3.13;;
30635;SDS011;17400;52.392;9.750;2023-11-19T06:25:17;4.65;;;3.13;;
30635;SDS011;17400;52.392;9.750;2023-11-19T06:27:45;5.82;;;3.10;;
30635;SDS011;17400;52.392;9.750;2023-11-19T06:30:13;4.78;;;3.38;;
30635;SDS011;17400;52.392;9.750;2023-11-19T06:32:41;6.75;;;3.72;;
30635;SDS011;17400;52.392;9.750;2023-11-19T06:35:09;5.90;;;3.97;;
30635;SDS011;17400;52.392;9.750;2023-11-19T06:37:38;7.88;;;3.63;;
30635;SDS011;17400;52.392;9.750;2023-11-19T06:40:06;6.75;;;3.10;;
30635;SDS011;17400;52.392;9.750;2023-11-19T06:42:37;7.28;;;3.40;;
30635;SDS011;17400;52.392;9.750;2023-11-19T06:45:06;6.43;;;2.80;;
30635;SDS011;17400;52.392;9.750;2023-11-19T06:47:34;4.88;;;2.42;;
30635;SDS011;17400;52.392;9.750;2023-11-19T06:50:02;5.60;;;2.50;;
30635;SDS011;17400;52.392;9.750;2023-11-19T06:52:32;5.20;;;3.60;;
30635;SDS011;17400;52.392;9.750;2023-11-19T06:55:00;5.03;;;2.80;;
30635;SDS011;17400;52.392;9.750;2023-11-19T06:57:30;6.18;;;2.70;;
30635;SDS011;17400;52.392;9.750;2023-11-19T07:00:00;4.82;;;2.83;;
30635;SDS011;17400;52.392;9.750;2023-11-19T07:02:28;4.32;;;1.90;;
30635;SDS011;17400;52.392;9.750;2023-11-19T07:04:57;9.55;;;2.85;;
30635;SDS011;17400;52.392;9.750;2023-11-19T07:07:26;7.85;;;3.50;;
30635;SDS011;17400;52.392;9.750;2023-11-19T07:09:54;4.18;;;2.47;;
30635;SDS011;17400;52.392;9.750;2023-11-19T07:12:22;5.88;;;2.90;;
30635;SDS011;17400;52.392;9.750;2023-11-19T07:14:52;5.78;;;3.33;;
30635;SDS011;17400;52.392;9.750;2023-11-19T07:17:22;4.45;;;2.35;;
30635;SDS011;17400;52.392;9.750;2023-11-19T07:19:51;6.18;;;2.30;;
30635;SDS011;17400;52.392;9.750;2023-11-19T07:22:19;7.90;;;3.13;;
30635;SDS011;17400;52.392;9.750;2023-11-19T07:24:47;5.03;;;2.60;;
30635;SDS011;17400;52.392;9.750;2023-11-19T07:27:15;4.57;;;2.20;;
30635;SDS011;17400;52.392;9.750;2023-11-19T07:29:43;4.38;;;2.47;;
30635;SDS011;17400;52.392;9.750;2023-11-19T07:32:11;5.22;;;2.80;;
30635;SDS011;17400;52.392;9.750;2023-11-19T07:34:42;3.30;;;1.98;;
30635;SDS011;17400;52.392;9.750;2023-11-19T07:37:11;7.80;;;2.30;;
30635;SDS011;17400;52.392;9.750;2023-11-19T07:39:39;6.93;;;2.17;;
30635;SDS011;17400;52.392;9.750;2023-11-19T07:42:07;5.80;;;2.30;;
30635;SDS011;17400;52.392;9.750;2023-11-19T07:44:36;3.83;;;1.83;;
30635;SDS011;17400;52.392;9.750;2023-11-19T07:47:04;17.30;;;2.67;;
30635;SDS011;17400;52.392;9.750;2023-11-19T07:49:32;5.35;;;1.70;;
30635;SDS011;17400;52.392;9.750;2023-11-19T07:52:02;4.07;;;2.40;;
30635;SDS011;17400;52.392;9.750;2023-11-19T07:54:47;8.23;;;1.90;;
30635;SDS011;17400;52.392;9.750;2023-11-19T07:57:15;5.40;;;2.08;;
30635;SDS011;17400;52.392;9.750;2023-11-19T07:59:44;10.13;;;2.85;;
30635;SDS011;17400;52.392;9.750;2023-11-19T08:02:12;3.53;;;1.42;;
30635;SDS011;17400;52.392;9.750;2023-11-19T08:04:41;6.10;;;2.13;;
30635;SDS011;17400;52.392;9.750;2023-11-19T08:07:13;8.13;;;3.83;;
30635;SDS011;17400;52.392;9.750;2023-11-19T08:09:41;9.13;;;1.92;;
30635;SDS011;17400;52.392;9.750;2023-11-19T08:12:09;7.68;;;2.17;;
30635;SDS011;17400;52.392;9.750;2023-11-19T08:14:37;6.00;;;2.00;;
30635;SDS011;17400;52.392;9.750;2023-11-19T08:17:05;10.00;;;2.47;;
30635;SDS011;17400;52.392;9.750;2023-11-19T08:19:33;9.23;;;2.38;;
30635;SDS011;17400;52.392;9.750;2023-11-19T08:22:01;4.00;;;1.73;;
30635;SDS011;17400;52.392;9.750;2023-11-19T08:24:30;6.25;;;1.83;;
30635;SDS011;17400;52.392;9.750;2023-11-19T08:26:58;6.07;;;2.33;;
30635;SDS011;17400;52.392;9.750;2023-11-19T08:29:29;15.75;;;3.97;;
30635;SDS011;17400;52.392;9.750;2023-11-19T08:31:56;4.85;;;1.50;;
30635;SDS011;17400;52.392;9.750;2023-11-19T08:34:26;7.72;;;1.70;;
30635;SDS011;17400;52.392;9.750;2023-11-19T08:36:54;7.80;;;2.08;;
30635;SDS011;17400;52.392;9.750;2023-11-19T08:39:22;6.40;;;2.63;;
30635;SDS011;17400;52.392;9.750;2023-11-19T08:41:51;6.28;;;1.83;;
30635;SDS011;17400;52.392;9.750;2023-11-19T08:44:19;4.70;;;2.22;;
30635;SDS011;17400;52.392;9.750;2023-11-19T08:46:48;6.43;;;2.03;;
30635;SDS011;17400;52.392;9.750;2023-11-19T08:49:16;6.88;;;1.70;;
30635;SDS011;17400;52.392;9.750;2023-11-19T08:51:45;18.10;;;3.85;;
30635;SDS011;17400;52.392;9.750;2023-11-19T08:54:13;8.43;;;2.50;;
30635;SDS011;17400;52.392;9.750;2023-11-19T08:56:41;9.00;;;2.92;;
30635;SDS011;17400;52.392;9.750;2023-11-19T08:59:10;7.85;;;2.85;;
30635;SDS011;17400;52.392;9.750;2023-11-19T09:01:40;7.35;;;1.83;;
30635;SDS011;17400;52.392;9.750;2023-11-19T09:04:09;5.47;;;2.30;;
30635;SDS011;17400;52.392;9.750;2023-11-19T09:06:37;9.57;;;3.13;;
30635;SDS011;17400;52.392;9.750;2023-11-19T09:09:05;7.78;;;1.92;;
30635;SDS011;17400;52.392;9.750;2023-11-19T09:11:33;9.18;;;2.92;;
30635;SDS011;17400;52.392;9.750;2023-11-19T09:14:01;7.70;;;2.15;;
30635;SDS011;17400;52.392;9.750;2023-11-19T09:16:30;8.45;;;2.75;;
30635;SDS011;17400;52.392;9.750;2023-11-19T09:18:59;4.22;;;2.05;;
30635;SDS011;17400;52.392;9.750;2023-11-19T09:21:32;13.80;;;3.15;;
30635;SDS011;17400;52.392;9.750;2023-11-19T09:24:01;5.20;;;2.13;;
30635;SDS011;17400;52.392;9.750;2023-11-19T09:26:28;7.50;;;2.50;;
30635;SDS011;17400;52.392;9.750;2023-11-19T09:28:57;3.63;;;1.55;;
30635;SDS011;17400;52.392;9.750;2023-11-19T09:31:25;3.53;;;1.60;;
30635;SDS011;17400;52.392;9.750;2023-11-19T09:33:54;10.40;;;3.63;;
30635;SDS011;17400;52.392;9.750;2023-11-19T09:36:22;7.80;;;1.83;;
30635;SDS011;17400;52.392;9.750;2023-11-19T09:38:50;7.07;;;2.95;;
30635;SDS011;17400;52.392;9.750;2023-11-19T09:41:17;6.45;;;1.88;;
30635;SDS011;17400;52.392;9.750;2023-11-19T09:43:46;7.55;;;2.15;;
30635;SDS011;17400;52.392;9.750;2023-11-19T09:46:14;9.68;;;2.47;;
30635;SDS011;17400;52.392;9.750;2023-11-19T09:48:44;5.22;;;1.85;;
30635;SDS011;17400;52.392;9.750;2023-11-19T09:51:13;9.95;;;2.65;;
30635;SDS011;17400;52.392;9.750;2023-11-19T09:53:41;9.35;;;3.10;;
30635;SDS011;17400;52.392;9.750;2023-11-19T09:56:08;11.85;;;2.30;;
30635;SDS011;17400;52.392;9.750;2023-11-19T09:58:38;3.70;;;1.35;;
30635;SDS011;17400;52.392;9.750;2023-11-19T10:01:06;7.72;;;2.40;;
30635;SDS011;17400;52.392;9.750;2023-11-19T10:03:39;6.40;;;2.35;;
30635;SDS011;17400;52.392;9.750;2023-11-19T10:06:10;6.15;;;2.20;;
30635;SDS011;17400;52.392;9.750;2023-11-19T10:08:40;8.00;;;2.45;;
30635;SDS011;17400;52.392;9.750;2023-11-19T10:11:09;4.82;;;2.40;;
30635;SDS011;17400;52.392;9.750;2023-11-19T10:13:39;11.38;;;2.90;;
30635;SDS011;17400;52.392;9.750;2023-11-19T10:16:08;17.42;;;3.30;;
30635;SDS011;17400;52.392;9.750;2023-11-19T10:18:42;6.32;;;3.15;;
30635;SDS011;17400;52.392;9.750;2023-11-19T10:21:12;21.10;;;6.80;;
30635;SDS011;17400;52.392;9.750;2023-11-19T10:23:51;11.38;;;4.45;;
30635;SDS011;17400;52.392;9.750;2023-11-19T10:26:20;13.82;;;3.22;;
30635;SDS011;17400;52.392;9.750;2023-11-19T10:28:48;10.20;;;2.72;;
30635;SDS011;17400;52.392;9.750;2023-11-19T10:31:17;4.85;;;1.83;;
30635;SDS011;17400;52.392;9.750;2023-11-19T10:33:47;6.22;;;2.10;;
30635;SDS011;17400;52.392;9.750;2023-11-19T10:36:15;9.48;;;1.67;;
30635;SDS011;17400;52.392;9.750;2023-11-19T10:38:52;10.23;;;1.90;;
30635;SDS011;17400;52.392;9.750;2023-11-19T10:41:27;6.97;;;3.00;;
30635;SDS011;17400;52.392;9.750;2023-11-19T10:43:55;7.13;;;1.95;;
30635;SDS011;17400;52.392;9.750;2023-11-19T10:46:23;12.85;;;2.58;;
30635;SDS011;17400;52.392;9.750;2023-11-19T10:49:04;8.13;;;1.98;;
30635;SDS011;17400;52.392;9.750;2023-11-19T10:51:33;9.38;;;2.97;;
30635;SDS011;17400;52.392;9.750;2023-11-19T10:54:03;9.45;;;1.83;;
30635;SDS011;17400;52.392;9.750;2023-11-19T10:56:33;7.57;;;1.90;;
30635;SDS011;17400;52.392;9.750;2023-11-19T10:59:02;6.75;;;2.88;;
30635;SDS011;17400;52.392;9.750;2023-11-19T11:01:50;17.02;;;3.47;;
30635;SDS011;17400;52.392;9.750;2023-11-19T11:04:22;10.57;;;3.45;;
30635;SDS011;17400;52.392;9.750;2023-11-19T11:06:52;6.63;;;1.98;;
30635;SDS011;17400;52.392;9.750;2023-11-19T11:09:23;6.13;;;2.90;;
30635;SDS011;17400;52.392;9.750;2023-11-19T11:11:53;10.75;;;3.08;;
30635;SDS011;17400;52.392;9.750;2023-11-19T11:14:23;5.20;;;1.83;;
30635;SDS011;17400;52.392;9.750;2023-11-19T11:16:53;7.93;;;2.28;;
30635;SDS011;17400;52.392;9.750;2023-11-19T11:19:21;7.57;;;2.58;;
30635;SDS011;17400;52.392;9.750;2023-11-19T11:21:50;4.80;;;2.10;;
30635;SDS011;17400;52.392;9.750;2023-11-19T11:24:26;6.78;;;2.80;;
30635;SDS011;17400;52.392;9.750;2023-11-19T11:27:19;11.32;;;2.58;;
30635;SDS011;17400;52.392;9.750;2023-11-19T11:30:08;6.22;;;2.25;;
30635;SDS011;17400;52.392;9.750;2023-11-19T11:32:49;8.00;;;2.58;;
30635;SDS011;17400;52.392;9.750;2023-11-19T11:35:29;11.77;;;3.28;;
30635;SDS011;17400;52.392;9.750;2023-11-19T11:38:06;7.18;;;3.17;;
30635;SDS011;17400;52.392;9.750;2023-11-19T11:40:36;9.60;;;3.33;;
30635;SDS011;17400;52.392;9.750;2023-11-19T11:43:04;4.53;;;2.05;;
30635;SDS011;17400;52.392;9.750;2023-11-19T11:45:52;7.95;;;2.97;;
30635;SDS011;17400;52.392;9.750;2023-11-19T11:48:20;11.52;;;5.45;;
30635;SDS011;17400;52.392;9.750;2023-11-19T11:50:50;10.88;;;4.65;;
30635;SDS011;17400;52.392;9.750;2023-11-19T11:53:25;6.38;;;3.13;;
30635;SDS011;17400;52.392;9.750;2023-11-19T11:55:57;6.68;;;2.67;;
30635;SDS011;17400;52.392;9.750;2023-11-19T11:58:35;9.52;;;3.10;;
30635;SDS011;17400;52.392;9.750;2023-11-19T12:01:04;8.73;;;2.65;;
30635;SDS011;17400;52.392;9.750;2023-11-19T12:03:37;8.45;;;2.20;;
30635;SDS011;17400;52.392;9.750;2023-11-19T12:06:05;6.72;;;2.13;;
30635;SDS011;17400;52.392;9.750;2023-11-19T12:08:35;12.23;;;2.72;;
30635;SDS011;17400;52.392;9.750;2023-11-19T12:11:20;5.35;;;2.30;;
30635;SDS011;17400;52.392;9.750;2023-11-19T12:13:55;10.77;;;2.78;;
30635;SDS011;17400;52.392;9.750;2023-11-19T12:16:25;12.43;;;2.17;;
30635;SDS011;17400;52.392;9.750;2023-11-19T12:18:56;9.70;;;3.67;;
30635;SDS011;17400;52.392;9.750;2023-11-19T12:21:30;11.55;;;2.95;;
30635;SDS011;17400;52.392;9.750;2023-11-19T12:23:59;6.00;;;2.08;;
30635;SDS011;17400;52.392;9.750;2023-11-19T12:26:35;7.55;;;2.97;;
30635;SDS011;17400;52.392;9.750;2023-11-19T12:29:05;10.77;;;2.60;;
30635;SDS011;17400;52.392;9.750;2023-11-19T12:31:35;11.25;;;2.88;;
30635;SDS011;17400;52.392;9.750;2023-11-19T12:34:10;6.55;;;2.53;;
30635;SDS011;17400;52.392;9.750;2023-11-19T12:36:40;13.32;;;2.67;;
30635;SDS011;17400;52.392;9.750;2023-11-19T12:39:09;4.18;;;1.80;;
30635;SDS011;17400;52.392;9.750;2023-11-19T12:41:50;13.50;;;2.85;;
30635;SDS011;17400;52.392;9.750;2023-11-19T12:44:19;13.60;;;2.22;;
30635;SDS011;17400;52.392;9.750;2023-11-19T12:46:58;8.23;;;2.30;;
30635;SDS011;17400;52.392;9.750;2023-11-19T12:49:27;6.40;;;2.40;;
30635;SDS011;17400;52.392;9.750;2023-11-19T12:51:55;8.05;;;2.80;;
30635;SDS011;17400;52.392;9.750;2023-11-19T12:54:32;11.07;;;3.00;;
30635;SDS011;17400;52.392;9.750;2023-11-19T12:57:03;10.10;;;3.13;;
30635;SDS011;17400;52.392;9.750;2023-11-19T12:59:32;5.10;;;2.00;;
30635;SDS011;17400;52.392;9.750;2023-11-19T13:02:00;4.03;;;1.98;;
30635;SDS011;17400;52.392;9.750;2023-11-19T13:04:29;6.55;;;2.22;;
30635;SDS011;17400;52.392;9.750;2023-11-19T13:06:58;12.07;;;2.15;;
30635;SDS011;17400;52.392;9.750;2023-11-19T13:09:29;9.10;;;2.10;;
30635;SDS011;17400;52.392;9.750;2023-11-19T13:11:57;6.47;;;1.60;;
30635;SDS011;17400;52.392;9.750;2023-11-19T13:14:36;9.57;;;2.83;;
30635;SDS011;17400;52.392;9.750;2023-11-19T13:17:05;7.85;;;1.90;;
30635;SDS011;17400;52.392;9.750;2023-11-19T13:19:33;11.40;;;2.33;;
30635;SDS011;17400;52.392;9.750;2023-11-19T13:22:01;8.65;;;3.00;;
30635;SDS011;17400;52.392;9.750;2023-11-19T13:24:29;7.93;;;2.65;;
30635;SDS011;17400;52.392;9.750;2023-11-19T13:26:57;5.63;;;1.67;;
30635;SDS011;17400;52.392;9.750;2023-11-19T13:29:25;4.07;;;2.00;;
30635;SDS011;17400;52.392;9.750;2023-11-19T13:31:58;6.78;;;1.98;;
30635;SDS011;17400;52.392;9.750;2023-11-19T13:34:26;5.30;;;1.92;;
30635;SDS011;17400;52.392;9.750;2023-11-19T13:36:54;2.67;;;1.33;;
30635;SDS011;17400;52.392;9.750;2023-11-19T13:39:23;6.68;;;1.85;;
30635;SDS011;17400;52.392;9.750;2023-11-19T13:41:51;3.00;;;1.27;;
30635;SDS011;17400;52.392;9.750;2023-11-19T13:44:18;16.50;;;2.78;;
30635;SDS011;17400;52.392;9.750;2023-11-19T13:46:46;6.32;;;1.77;;
30635;SDS011;17400;52.392;9.750;2023-11-19T13:49:16;4.57;;;1.70;;
30635;SDS011;17400;52.392;9.750;2023-11-19T13:51:44;5.50;;;2.92;;
30635;SDS011;17400;52.392;9.750;2023-11-19T13:54:12;5.00;;;2.08;;
30635;SDS011;17400;52.392;9.750;2023-11-19T13:56:40;5.72;;;1.73;;
30635;SDS011;17400;52.392;9.750;2023-11-19T13:59:10;3.25;;;1.70;;
30635;SDS011;17400;52.392;9.750;2023-11-19T14:01:38;5.65;;;1.63;;
30635;SDS011;17400;52.392;9.750;2023-11-19T14:04:07;3.50;;;1.83;;
30635;SDS011;17400;52.392;9.750;2023-11-19T14:06:37;7.25;;;2.70;;
30635;SDS011;17400;52.392;9.750;2023-11-19T14:09:06;6.18;;;2.17;;
30635;SDS011;17400;52.392;9.750;2023-11-19T14:11:34;7.68;;;1.85;;
30635;SDS011;17400;52.392;9.750;2023-11-19T14:14:02;6.63;;;2.38;;
30635;SDS011;17400;52.392;9.750;2023-11-19T14:16:30;7.65;;;2.58;;
30635;SDS011;17400;52.392;9.750;2023-11-19T14:18:59;8.95;;;1.95;;
30635;SDS011;17400;52.392;9.750;2023-11-19T14:21:27;10.32;;;2.03;;
30635;SDS011;17400;52.392;9.750;2023-11-19T14:23:56;8.52;;;3.45;;
30635;SDS011;17400;52.392;9.750;2023-11-19T14:26:24;3.80;;;1.58;;
30635;SDS011;17400;52.392;9.750;2023-11-19T14:28:52;5.55;;;2.30;;
30635;SDS011;17400;52.392;9.750;2023-11-19T14:31:22;4.13;;;1.70;;
30635;SDS011;17400;52.392;9.750;2023-11-19T14:33:50;11.43;;;3.25;;
30635;SDS011;17400;52.392;9.750;2023-11-19T14:36:20;7.40;;;2.35;;
30635;SDS011;17400;52.392;9.750;2023-11-19T14:38:48;8.13;;;1.92;;
30635;SDS011;17400;52.392;9.750;2023-11-19T14:41:18;7.78;;;2.42;;
30635;SDS011;17400;52.392;9.750;2023-11-19T14:43:46;10.50;;;4.07;;
30635;SDS011;17400;52.392;9.750;2023-11-19T14:46:15;8.57;;;3.17;;
30635;SDS011;17400;52.392;9.750;2023-11-19T14:48:43;4.85;;;2.30;;
30635;SDS011;17400;52.392;9.750;2023-11-19T14:51:11;9.02;;;2.22;;
30635;SDS011;17400;52.392;9.750;2023-11-19T14:53:39;7.53;;;3.20;;
30635;SDS011;17400;52.392;9.750;2023-11-19T14:56:09;7.57;;;1.70;;
30635;SDS011;17400;52.392;9.750;2023-11-19T14:58:40;5.50;;;1.60;;